28 września 2022

Czas Kod Pogoda Temp. Widoczność Sufit Wiatr METAR/SPECI
00:30
L
14 °C 10 km+ 400 ft 270° 270° 13 kt METAR LFBL 272230Z AUTO 27013KT 230V290 9999 -DZ OVC004 14/14 Q1008 TEMPO 2000 RADZ
00:00
L
14 °C 3,6 km 300 ft 260° 260° 9 kt METAR LFBL 272200Z AUTO 26009KT 230V290 3600 -RADZ BR OVC003 14/14 Q1008 TEMPO 2000 RADZ

27 września 2022

Czas Kod Pogoda Temp. Widoczność Sufit Wiatr METAR/SPECI
23:30
L
13 °C 2,9 km 300 ft 250° 250° 7 kt METAR LFBL 272130Z AUTO 25007KT 210V280 2900 DZ BR OVC003 13/13 Q1008 TEMPO RADZ
23:00
L
13 °C 3,3 km 300 ft 240° 240° 10 kt METAR LFBL 272100Z AUTO 24010KT 210V280 3300 -RA BR OVC003 13/13 Q1008 TEMPO 2000 RADZ
22:30
L
13 °C 3,3 km 400 ft 240° 240° 9 kt METAR LFBL 272030Z AUTO 24009KT 210V280 3300 -RA BR OVC004 13/13 Q1009 TEMPO 2000 RADZ
22:00
L
12 °C 3,8 km 400 ft 230° 230° 10 kt METAR LFBL 272000Z AUTO 23010KT 3800 -RA BR OVC004/// ///TCU 12/12 Q1009 TEMPO 2000 RADZ OVC002
21:30
L
12 °C 2,9 km 300 ft 230° 230° 8 kt METAR LFBL 271930Z AUTO 23008KT 200V260 2900 RA BR OVC003 12/12 Q1009 NOSIG
21:00
L
12 °C 3,7 km 300 ft 230° 230° 10 kt METAR LFBL 271900Z AUTO 23010KT 3700 -RA BR OVC003 12/12 Q1009 TEMPO 2000 RADZ
20:30
L
12 °C 4,3 km 400 ft 230° 230° 8 kt METAR LFBL 271830Z AUTO 23008KT 4300 -RA BR OVC004 12/11 Q1010 TEMPO 2000 RADZ
20:00
I
12 °C 3,6 km 600 ft 240° 240° 7 kt METAR LFBL 271800Z AUTO 24007KT 3600 -RA BR BKN006 OVC011 12/11 Q1010 TEMPO 2000 RADZ OVC002
19:30
M
12 °C 9 km 1.200 ft 260° 260° 9 kt METAR LFBL 271730Z AUTO 26009KT 230V290 9000 -DZ BKN012 OVC020 12/11 Q1010 BECMG 2000 RADZ OVC002
19:00
M
13 °C 10 km+ 2.600 ft 250° 250° 14 kt METAR LFBL 271700Z AUTO 25014KT 210V280 9999 BKN026 OVC035 13/09 Q1010 BECMG 2000 RADZ OVC002
18:30
V
14 °C 10 km+ 3.100 ft 260° 260° 11 kt METAR LFBL 271630Z AUTO 26011KT 230V290 9999 BKN031 OVC041 14/08 Q1010 BECMG 2000 RADZ OVC002
18:00
V
14 °C 10 km+ 3.900 ft 260° 260° 10 kt METAR LFBL 271600Z AUTO 26010KT 220V290 9999 OVC039 14/08 Q1010 NOSIG
17:30
V
15 °C 10 km+ 3.800 ft 270° 270° 12 - 23 kt METAR LFBL 271530Z AUTO 27012G23KT 230V310 9999 BKN038 BKN045 BKN090 15/08 Q1010 NOSIG
17:00
V
14 °C 10 km+ 3.400 ft 250° 250° 10 kt METAR LFBL 271500Z AUTO 25010KT 220V290 9999 FEW026 BKN034 BKN042 14/08 Q1010 NOSIG
16:30
V
14 °C 10 km+ 3.000 ft 270° 270° 10 kt METAR LFBL 271430Z AUTO 27010KT 220V300 9999 BKN030 BKN035 BKN049 14/09 Q1011 NOSIG
16:00
M
14 °C 10 km+ 2.900 ft 270° 270° 13 - 26 kt METAR LFBL 271400Z AUTO 27013G26KT 240V300 9999 BKN029 BKN036 BKN052 14/08 Q1010 NOSIG
15:30
V
14 °C 10 km+ 3.300 ft 270° 270° 10 kt METAR LFBL 271330Z AUTO 27010KT 220V290 9999 SCT028 BKN033 BKN042 14/08 Q1011 NOSIG
15:00
M
13 °C 10 km+ 2.900 ft 260° 260° 9 kt METAR LFBL 271300Z AUTO 26009KT 220V300 9999 SCT024 BKN029 BKN034 13/09 Q1011 NOSIG
14:30
M
13 °C 10 km+ 2.800 ft 270° 270° 10 kt METAR LFBL 271230Z AUTO 27010KT 240V310 9999 SCT021 BKN028 BKN036 13/08 Q1011 NOSIG
14:00
M
12 °C 10 km+ 2.300 ft 270° 270° 9 kt METAR LFBL 271200Z AUTO 27009KT 230V310 9999 BKN023 BKN030 OVC045 12/08 Q1011 NOSIG
13:30
V
13 °C 10 km+ 3.500 ft 260° 260° 11 - 21 kt METAR LFBL 271130Z AUTO 26011G21KT 210V300 9999 FEW024 BKN035 OVC044 13/08 Q1011 NOSIG
13:00
M
12 °C 10 km+ 2.400 ft 260° 260° 10 kt METAR LFBL 271100Z AUTO 26010KT 210V290 9999 SCT018 BKN024 BKN029 12/08 Q1012 NOSIG
12:30
V
12 °C 10 km+ 4.600 ft 260° 260° 9 kt METAR LFBL 271030Z AUTO 26009KT 230V300 9999 FEW015 OVC046 12/09 Q1012 NOSIG
12:00
V
11 °C 10 km+ 4.800 ft 250° 250° 8 kt METAR LFBL 271000Z AUTO 25008KT 220V290 9999 FEW012 OVC048 11/09 Q1012 NOSIG
11:30
V
10 °C 10 km+ 4.800 ft 250° 250° 6 kt METAR LFBL 270930Z AUTO 25006KT 220V290 9999 FEW008 OVC048 10/09 Q1012 TEMPO BKN004
11:00
L
9 °C 10 km+ 400 ft 250° 250° 6 kt METAR LFBL 270900Z AUTO 25006KT 230V290 9999 BKN004 BKN029 BKN034 09/09 Q1012 BECMG BKN030
10:30
L
9 °C 10 km+ 400 ft 250° 250° 6 kt METAR LFBL 270830Z AUTO 25006KT 210V300 9999 OVC004 09/09 Q1012 BECMG BKN030
10:00
L
9 °C 10 km+ 400 ft 260° 260° 8 kt METAR LFBL 270800Z AUTO 26008KT 230V290 9999 OVC004 09/09 Q1012 BECMG SCT007 BKN030
09:30
L
9 °C 10 km+ 300 ft 240° 240° 7 kt METAR LFBL 270730Z AUTO 24007KT 9999 OVC003 09/09 Q1011 BECMG SCT007 BKN030
09:00
L
9 °C 8 km 300 ft 250° 250° 6 kt METAR LFBL 270700Z AUTO 25006KT 200V290 8000 OVC003 09/09 Q1011 TEMPO 3000 BR BECMG SCT007 BKN030
08:30
L
9 °C 6 km 200 ft 250° 250° 5 kt METAR LFBL 270630Z AUTO 25005KT 6000 OVC002 09/09 Q1011 TEMPO 3000 BR BECMG SCT007 BKN030
08:00
L
9 °C 5 km 400 ft 250° 250° 6 kt METAR LFBL 270600Z AUTO 25006KT 5000 BR OVC004 09/09 Q1011 NOSIG
07:30
L
9 °C 8 km 400 ft 260° 260° 5 kt METAR LFBL 270530Z AUTO 26005KT 220V290 8000 OVC004 09/09 Q1011 TEMPO 3000 BR
07:00
L
9 °C 10 km+ 400 ft 290° 290° 6 kt METAR LFBL 270500Z AUTO 29006KT 9999 OVC004 09/09 Q1010 TEMPO 3000 BR
06:30
L
9 °C 9 km 400 ft 280° 280° 6 kt METAR LFBL 270430Z AUTO 28006KT 250V320 9000 OVC004 09/09 Q1010 TEMPO 0800 BCFG BKN001
06:00
L
9 °C 10 km+ 400 ft 280° 280° 7 kt METAR LFBL 270400Z AUTO 28007KT 250V310 9999 OVC004 09/09 Q1010 TEMPO 0800 BCFG BKN001
05:30
L
10 °C 10 km+ 400 ft 290° 290° 7 kt METAR LFBL 270330Z AUTO 29007KT 260V320 9999 OVC004 10/09 Q1010 TEMPO 0800 BCFG BKN001
05:00
M
10 °C 9 km 2.200 ft 280° 280° 7 kt METAR LFBL 270300Z AUTO 28007KT 250V320 9000 SCT005 BKN022 OVC052 10/09 Q1010 TEMPO 0800 BCFG BKN001
04:30
V
10 °C 10 km+ 5.200 ft 290° 290° 5 kt METAR LFBL 270230Z AUTO 29005KT 9999 FEW006 OVC052 10/09 Q1010 TEMPO 0800 BCFG BKN001
04:00
V
10 °C 10 km+ 5.200 ft 270° 270° 5 kt METAR LFBL 270200Z AUTO 27005KT 240V310 9999 FEW005 OVC052 10/09 Q1010 TEMPO 0800 BCFG BKN001
03:30
M
10 °C 10 km+ 2.300 ft 270° 270° 6 kt METAR LFBL 270130Z AUTO 27006KT 9999 BKN023 OVC052 10/10 Q1009 TEMPO 0800 BCFG BKN001
03:00
V
10 °C 10 km+ 5.600 ft 280° 280° 4 kt METAR LFBL 270100Z AUTO 28004KT 9999 FEW007 SCT024 BKN056 10/09 Q1009 TEMPO BKN003
02:30
M
11 °C 10 km+ 1.200 ft 280° 280° 5 kt METAR LFBL 270030Z AUTO 28005KT 220V310 9999 SCT008 BKN012 BKN017 11/10 Q1009 TEMPO BKN003
02:00
M
11 °C 10 km+ 1.300 ft 300° 300° 5 kt METAR LFBL 270000Z AUTO 30005KT 260V330 9999 FEW008 BKN013 OVC054 11/10 Q1009 TEMPO BKN003
01:30
V
11 °C 10 km+ 5.600 ft 290° 290° 5 kt METAR LFBL 262330Z AUTO 29005KT 250V340 9999 FEW010 OVC056 11/10 Q1009 TEMPO BKN005
01:00
V
11 °C 10 km+ 3.500 ft 310° 310° 6 kt METAR LFBL 262300Z AUTO 31006KT 290V350 9999 SCT010 SCT024 BKN035 11/11 Q1009 TEMPO BKN005
00:30
I
11 °C 10 km+ 600 ft 300° 300° 8 kt METAR LFBL 262230Z AUTO 30008KT 270V330 9999 BKN006 OVC012 11/11 Q1009 NOSIG
00:00
I
11 °C 10 km+ 500 ft 280° 280° 6 kt METAR LFBL 262200Z AUTO 28006KT 9999 BKN005 OVC021 11/11 Q1009 NOSIG

26 września 2022

Czas Kod Pogoda Temp. Widoczność Sufit Wiatr METAR/SPECI
23:30
L
11 °C 10 km+ 400 ft 280° 280° 7 kt METAR LFBL 262130Z AUTO 28007KT 9999 BKN004/// BKN018/// BKN027/// ///TCU 11/11 Q1009 TEMPO BKN005
23:00
I
11 °C 7 km 700 ft 300° 300° 9 kt METAR LFBL 262100Z AUTO 30009KT 7000 -RA BKN007 BKN013 BKN023 11/11 Q1009 TEMPO 26015G25KT 2000 DZRA OVC003
22:30
L
12 °C 4,1 km 400 ft 270° 270° 9 kt METAR LFBL 262030Z AUTO 27009KT 230V290 4100 -RA BR OVC004 12/12 Q1008 TEMPO 26015G25KT BKN005 BECMG 9999 NSW
22:00
L
12 °C 6 km 400 ft 240° 240° 10 kt METAR LFBL 262000Z AUTO 24010KT 200V270 6000 -RA OVC004 12/11 Q1008 TEMPO 26015G25KT 4000 RA OVC005
21:30
L
11 °C 4 km 400 ft 230° 230° 12 kt METAR LFBL 261930Z AUTO 23012KT 200V260 4000 RA BR OVC004/// //////TCU 11/11 Q1008 TEMPO 26015G25KT OVC005
21:00
I
11 °C 3,5 km 500 ft 230° 230° 10 kt METAR LFBL 261900Z AUTO 23010KT 200V260 3500 RA BR OVC005/// //////TCU 11/11 Q1008 TEMPO 26015G25KT OVC005
20:30
I
11 °C 4,7 km 1.000 ft 220° 220° 13 kt METAR LFBL 261830Z AUTO 22013KT 4700 RA BR BKN010/// OVC016/// //////TCU 11/10 Q1008 TEMPO 26015G25KT OVC005
20:00
I
12 °C 4,9 km 2.500 ft 220° 220° 14 kt METAR LFBL 261800Z AUTO 22014KT 9999 4900 -RA SCT019/// BKN025/// OVC035/// //////TCU 12/10 Q1009 TEMPO 26015G25KT 4000 RA OVC005
19:30
V
12 °C 10 km+ 3.200 ft 220° 220° 14 kt METAR LFBL 261730Z AUTO 22014KT 9999 SCT025/// BKN032/// BKN040/// ///TCU 12/09 Q1009 TEMPO 26015G25KT 4000 RA OVC005
19:00
V
13 °C 10 km+ 3.400 ft 230° 230° 13 kt METAR LFBL 261700Z AUTO 23013KT 9999 -RA BKN034/// BKN048/// OVC076/// ///TCU 13/08 Q1009 TEMPO 26015G25KT 4000 RA OVC005
18:30
V
14 °C 10 km+ 4.400 ft 240° 240° 15 kt METAR LFBL 261630Z AUTO 24015KT 9999 FEW038/// BKN044/// OVC050/// //////TCU 14/07 Q1009 TEMPO 26015G25KT 4000 RA OVC005
18:00
V
15 °C 10 km+ 4.500 ft 240° 240° 11 kt METAR LFBL 261600Z AUTO 24011KT 9999 BKN045/// OVC052/// ///TCU 15/07 Q1009 TEMPO BKN020
17:30
V
15 °C 10 km+ 5.600 ft 240° 240° 10 - 20 kt METAR LFBL 261530Z AUTO 24010G20KT 200V280 9999 SCT038 BKN056 BKN068 15/08 Q1009 NOSIG
17:00
V
15 °C 10 km+ 3.800 ft 240° 240° 8 kt METAR LFBL 261500Z AUTO 24008KT 200V280 9999 BKN038/// OVC056/// ///TCU 15/08 Q1010 TEMPO BKN020
16:30
V
15 °C 10 km+ 4.400 ft 230° 230° 15 kt METAR LFBL 261430Z AUTO 23015KT 200V260 9999 SCT038 BKN044 OVC056 15/07 Q1010 NOSIG
16:00
V
15 °C 10 km+ 4.000 ft 240° 240° 11 kt METAR LFBL 261400Z AUTO 24011KT 200V280 9999 BKN040 BKN046 15/07 Q1011 NOSIG
15:30
V
16 °C 10 km+ 4.000 ft 260° 260° 11 kt METAR LFBL 261330Z AUTO 26011KT 230V310 9999 BKN040 BKN048 OVC120 16/07 Q1011 NOSIG
15:00
V
14 °C 10 km+ 11.000 ft 240° 240° 12 kt METAR LFBL 261300Z AUTO 24012KT 210V280 9999 FEW038 SCT044 OVC110 14/06 Q1011 NOSIG
14:30
V
15 °C 10 km+ 12.000 ft 240° 240° 12 kt METAR LFBL 261230Z AUTO 24012KT 220V280 9999 FEW035 OVC120 15/07 Q1012 NOSIG
14:00
V
14 °C 10 km+ 10.000 ft 250° 250° 10 kt METAR LFBL 261200Z AUTO 25010KT 210V280 9999 SCT024 BKN100 BKN120 14/07 Q1012 NOSIG
13:30
V
13 °C 10 km+ 11.000 ft 260° 260° 8 kt METAR LFBL 261130Z AUTO 26008KT 220V290 9999 SCT021 SCT034 OVC110 13/09 Q1013 NOSIG
13:00
M
13 °C 10 km+ 1.800 ft 260° 260° 7 kt METAR LFBL 261100Z AUTO 26007KT 210V290 9999 BKN018 BKN040 OVC140 13/09 Q1013 NOSIG
12:30
V
13 °C 10 km+ 3.900 ft 230° 230° 6 kt METAR LFBL 261030Z AUTO 23006KT 200V270 9999 FEW013 BKN039 BKN130 13/11 Q1013 NOSIG
12:00
V
12 °C 10 km+ 9.800 ft 220° 220° 7 kt METAR LFBL 261000Z AUTO 22007KT 200V260 9999 FEW009 BKN098 12/10 Q1013 NOSIG
11:30
V
11 °C 10 km+ 13.000 ft 220° 220° 6 kt METAR LFBL 260930Z AUTO 22006KT 200V260 9999 SCT007 SCT100 BKN130 11/10 Q1014 NOSIG
11:00
V
10 °C 10 km+ 11.000 ft 200° 200° 6 kt METAR LFBL 260900Z AUTO 20006KT 170V230 9999 FEW006 SCT047 BKN110 10/10 Q1014 NOSIG
10:30
L
9 °C 10 km+ - 220° 220° 5 kt METAR LFBL 260830Z AUTO 22005KT 9999 VV/// 09/09 Q1014 BECMG SCT015
10:00
L
9 °C 1,4 km - Var Var 1 kt METAR LFBL 260800Z AUTO VRB01KT 2500 1400 R21/2800D R03/1500U BR VV/// 09/09 Q1014 BECMG 7000 NSW SCT015
09:30
L
8 °C 250 m - Var Var 2 kt METAR LFBL 260730Z AUTO VRB02KT 0300 0250 R21/0325N R03/0325N FG VV/// 08/08 Q1014 BECMG 7000 NSW SCT015
09:00
L
7 °C 150 m - Var Var 2 kt METAR LFBL 260700Z AUTO VRB02KT 0200 0150 R21/0200N R03/0200N FG VV/// 07/07 Q1014 TEMPO 1200 MIFG
08:30
L
7 °C 200 m - Var Var 2 kt METAR LFBL 260630Z AUTO VRB02KT 0200 R21/0200N R03/0200N FG VV/// 07/07 Q1014 TEMPO 1200 MIFG
08:00
L
6 °C 150 m - Var Var 1 kt METAR LFBL 260600Z AUTO VRB01KT 0200 0150 R21/0200N R03/0225N FG VV/// 06/06 Q1014 TEMPO 1200 MIFG
07:30
L
6 °C 200 m - 040° 040° 2 kt METAR LFBL 260530Z AUTO 04002KT 0200 R21/0200N R03/0225N FG VV/// 06/06 Q1014 TEMPO 1200 MIFG
07:00
L
6 °C 200 m - Var Var 2 kt METAR LFBL 260500Z AUTO VRB02KT 0200 R21/0200N R03/0225N FG VV/// 06/06 Q1014 NOSIG
06:30
L
6 °C 400 m - Var 000° 0 kt METAR LFBL 260430Z AUTO 00000KT 0500 0400 R21/0700D R03/0450D FG VV/// 06/05 Q1014 TEMPO 0300 FG
06:00
L
6 °C 700 m - 030° 030° 2 kt METAR LFBL 260400Z AUTO 03002KT 1200 0700 R21/0750D R03/1700D BCFG VV/// 06/06 Q1014 TEMPO 0300 FG
05:30
L
8 °C 750 m - Var Var 1 kt METAR LFBL 260330Z AUTO VRB01KT 2900 0750 R21/1200D R03/3600D BCFG VV/// 08/08 Q1015 TEMPO 0300 FG
05:00
L
8 °C 900 m - Var Var 1 kt METAR LFBL 260300Z AUTO VRB01KT 1600 0900 R21/1100U R03/1900U BCFG VV/// 08/07 Q1015 TEMPO 0300 FG
04:30
L
8 °C 300 m - Var 000° 0 kt METAR LFBL 260230Z AUTO 00000KT 0600 0300 R21/0350N R03/0650U FG VV/// 08/07 Q1015 TEMPO 0300 FG
04:00
L
9 °C 750 m - 290° 290° 3 kt METAR LFBL 260200Z AUTO 29003KT 9999 0750 R21/0900D R03/P5000 BCFG NSC 09/09 Q1015 TEMPO 0300 FG VV///
03:30
V
10 °C 10 km+ - 310° 310° 5 kt METAR LFBL 260130Z AUTO 31005KT CAVOK 10/09 Q1015 TEMPO 0300 FG VV///
03:00
V
10 °C 10 km+ - 310° 310° 6 kt METAR LFBL 260100Z AUTO 31006KT CAVOK 10/09 Q1015 TEMPO 0300 FG VV///
02:30
V
10 °C 10 km+ - 310° 310° 5 kt METAR LFBL 260030Z AUTO 31005KT CAVOK 10/09 Q1016 TEMPO 0300 FG VV///
02:00
V
10 °C 10 km+ - 310° 310° 4 kt METAR LFBL 260000Z AUTO 31004KT CAVOK 10/09 Q1016 BECMG 1500 MIFG
01:30
V
10 °C 10 km+ - 360° 360° 1 kt METAR LFBL 252330Z AUTO 36001KT CAVOK 10/09 Q1016 BECMG 1500 MIFG
01:00
V
10 °C 10 km+ - Var 000° 0 kt METAR LFBL 252300Z AUTO 00000KT CAVOK 10/09 Q1016 BECMG 4000 BR BKN002
00:30
V
10 °C 10 km+ - Var 000° 0 kt METAR LFBL 252230Z AUTO 00000KT CAVOK 10/09 Q1017 BECMG 4000 BR BKN002
00:00
V
11 °C 10 km+ - Var 000° 0 kt METAR LFBL 252200Z AUTO 00000KT CAVOK 11/10 Q1017 NOSIG

25 września 2022

Czas Kod Pogoda Temp. Widoczność Sufit Wiatr METAR/SPECI
23:30
V
11 °C 10 km+ - Var Var 1 kt METAR LFBL 252130Z AUTO VRB01KT CAVOK 11/10 Q1017 NOSIG
23:00
V
11 °C 10 km+ 4.900 ft Var Var 2 kt METAR LFBL 252100Z AUTO VRB02KT 9999 OVC049 11/10 Q1017 NOSIG
22:30
V
10 °C 10 km+ 4.900 ft 340° 340° 3 kt METAR LFBL 252030Z AUTO 34003KT 9999 BKN049 10/09 Q1017 NOSIG
22:00
V
10 °C 10 km+ - Var Var 2 kt METAR LFBL 252000Z AUTO VRB02KT CAVOK 10/10 Q1017 NOSIG
21:30
V
11 °C 10 km+ - 340° 340° 3 kt METAR LFBL 251930Z AUTO 34003KT 310V010 CAVOK 11/10 Q1017 NOSIG
21:00
V
11 °C 10 km+ - 300° 300° 3 kt METAR LFBL 251900Z AUTO 30003KT CAVOK 11/10 Q1017 NOSIG
20:30
V
12 °C 10 km+ - Var 000° 0 kt METAR LFBL 251830Z AUTO 00000KT 9999 FEW047 12/10 Q1016 NOSIG
20:00
V
12 °C 10 km+ - 010° 010° 3 kt METAR LFBL 251800Z AUTO 01003KT 9999 SCT049 12/11 Q1016 NOSIG
19:30
V
13 °C 10 km+ 4.900 ft 020° 020° 3 kt METAR LFBL 251730Z AUTO 02003KT 330V050 9999 FEW009 OVC049 13/11 Q1016 NOSIG
19:00
V
13 °C 10 km+ 4.900 ft 010° 010° 3 kt METAR LFBL 251700Z AUTO 01003KT 330V050 9999 FEW012 OVC049 13/11 Q1016 NOSIG
18:30
V
13 °C 10 km+ 4.600 ft 010° 010° 5 kt METAR LFBL 251630Z AUTO 01005KT 340V050 9999 FEW007 OVC046 13/11 Q1016 BECMG BKN012
18:00
V
13 °C 10 km+ 3.900 ft 360° 360° 5 kt METAR LFBL 251600Z AUTO 36005KT 290V040 9999 FEW008/// SCT031/// BKN039/// //////TCU 13/11 Q1016 BECMG BKN012
17:30
M
14 °C 10 km+ 1.200 ft 340° 340° 8 kt METAR LFBL 251530Z AUTO 34008KT 290V010 9999 BKN012/// OVC056/// ///CB 14/11 Q1016 BECMG BKN012
17:00
M
14 °C 10 km+ 1.300 ft 340° 340° 7 kt METAR LFBL 251500Z AUTO 34007KT 300V020 9999 BKN013/// BKN054/// //////CB 14/11 Q1016 BECMG BKN012
Starsze dane

My i osoby trzecie śledzimy twoje zachowanie w internecie na naszej stronie za pomocą plików cookie. Jeśli kontynuujesz, zakładamy, że zgadzasz się z naszą polityką plików cookie. Dowiedz się więcej